createdAt,value
2023-04-12T00:00:18.400Z,15.48
2023-04-12T00:02:54.299Z,15.70
2023-04-12T00:05:41.416Z,14.70
2023-04-12T00:08:21.414Z,16.17
2023-04-12T00:11:16.429Z,17.00
2023-04-12T00:14:03.408Z,18.25
2023-04-12T00:16:38.205Z,17.10
2023-04-12T00:19:24.514Z,16.08
2023-04-12T00:21:57.646Z,16.20
2023-04-12T00:24:48.424Z,15.27
2023-04-12T00:27:21.509Z,16.05
2023-04-12T00:30:09.427Z,15.57
2023-04-12T00:32:42.603Z,15.32
2023-04-12T00:35:29.521Z,17.33
2023-04-12T00:38:03.830Z,17.23
2023-04-12T00:40:50.412Z,15.80
2023-04-12T00:43:27.636Z,14.88
2023-04-12T00:46:14.460Z,16.05
2023-04-12T00:48:48.382Z,15.00
2023-04-12T00:51:39.433Z,14.70
2023-04-12T00:54:13.519Z,15.43
2023-04-12T00:57:00.447Z,16.83
2023-04-12T00:59:55.432Z,15.93
2023-04-12T01:02:45.675Z,16.23
2023-04-12T01:05:28.471Z,17.45
2023-04-12T01:08:17.433Z,15.90
2023-04-12T01:11:10.441Z,16.48
2023-04-12T01:14:36.420Z,16.05
2023-04-12T01:17:27.493Z,18.15
2023-04-12T01:20:13.809Z,16.80
2023-04-12T01:23:18.454Z,16.50
2023-04-12T01:25:54.578Z,17.60
2023-04-12T01:28:44.455Z,17.00
2023-04-12T01:31:26.458Z,16.52
2023-04-12T01:34:23.447Z,16.83
2023-04-12T01:37:11.431Z,18.02
2023-04-12T01:39:45.548Z,18.75
2023-04-12T01:42:32.477Z,16.83
2023-04-12T01:45:05.550Z,19.42
2023-04-12T01:47:52.491Z,17.45
2023-04-12T01:50:41.072Z,17.15
2023-04-12T01:53:34.445Z,18.77
2023-04-12T01:56:14.605Z,17.27
2023-04-12T01:59:02.409Z,15.95
2023-04-12T02:01:36.879Z,17.23
2023-04-12T02:04:24.447Z,16.70
2023-04-12T02:06:57.595Z,17.40
2023-04-12T02:09:45.466Z,17.88
2023-04-12T02:12:25.458Z,18.30
2023-04-12T02:15:14.464Z,17.88
2023-04-12T02:17:47.608Z,19.02
2023-04-12T02:20:35.486Z,18.92
2023-04-12T02:23:15.474Z,18.88
2023-04-12T02:26:02.452Z,18.08
2023-04-12T02:28:37.266Z,20.10
2023-04-12T02:31:25.461Z,18.67
2023-04-12T02:33:58.853Z,16.85
2023-04-12T02:36:45.465Z,18.80
2023-04-12T02:39:25.454Z,19.45
2023-04-12T02:42:20.479Z,18.25
2023-04-12T02:45:07.468Z,16.05
2023-04-12T02:47:41.714Z,18.45
2023-04-12T02:50:28.475Z,17.63
2023-04-12T02:53:01.595Z,17.38
2023-04-12T02:55:48.475Z,15.65
2023-04-12T02:58:21.627Z,18.13
2023-04-12T03:01:08.497Z,16.92
2023-04-12T03:03:41.963Z,14.73
2023-04-12T03:06:28.489Z,15.57
2023-04-12T03:09:08.474Z,18.75
2023-04-12T03:12:02.524Z,14.75
2023-04-12T03:14:49.484Z,16.88
2023-04-12T03:17:22.630Z,16.88
2023-04-12T03:20:16.517Z,16.48
2023-04-12T03:22:49.583Z,16.30
2023-04-12T03:25:36.498Z,18.13
2023-04-12T03:28:09.578Z,16.95
2023-04-12T03:30:56.515Z,19.58
2023-04-12T03:33:29.618Z,17.65
2023-04-12T03:36:17.463Z,15.85
2023-04-12T03:38:50.996Z,14.90
2023-04-12T03:41:37.506Z,16.88
2023-04-12T03:44:10.957Z,17.80
2023-04-12T03:46:57.503Z,17.20
2023-04-12T03:49:37.482Z,16.63
2023-04-12T03:52:24.497Z,15.35
2023-04-12T03:54:57.801Z,14.93
2023-04-12T03:57:51.527Z,14.50
2023-04-12T04:00:45.508Z,16.30
2023-04-12T04:03:41.688Z,14.82
2023-04-12T04:06:36.520Z,16.45
2023-04-12T04:09:24.500Z,15.05
2023-04-12T04:11:57.871Z,14.90
2023-04-12T04:14:44.510Z,14.63
2023-04-12T04:17:17.591Z,17.48
2023-04-12T04:20:04.489Z,17.05
2023-04-12T04:22:38.355Z,15.73
2023-04-12T04:25:26.504Z,16.90
2023-04-12T04:27:59.751Z,15.82
2023-04-12T04:30:46.537Z,14.77
2023-04-12T04:33:21.178Z,15.30
2023-04-12T04:36:08.499Z,15.57
2023-04-12T04:38:49.515Z,17.65
2023-04-12T04:41:45.507Z,15.52
2023-04-12T04:44:32.520Z,14.38
2023-04-12T04:47:06.951Z,15.25
2023-04-12T04:49:54.533Z,13.57
2023-04-12T04:52:34.531Z,15.38
2023-04-12T04:55:28.538Z,16.13
2023-04-12T04:58:22.527Z,14.35
2023-04-12T05:01:09.582Z,14.75
2023-04-12T05:03:44.784Z,16.48
2023-04-12T05:06:31.515Z,16.38
2023-04-12T05:09:05.385Z,14.75
2023-04-12T05:11:53.513Z,15.25
2023-04-12T05:14:41.257Z,15.13
2023-04-12T05:17:32.553Z,17.13
2023-04-12T05:20:10.785Z,17.25
2023-04-12T05:22:57.588Z,14.55
2023-04-12T05:25:30.879Z,16.55
2023-04-12T05:28:20.526Z,18.27
2023-04-12T05:30:53.670Z,15.82
2023-04-12T05:33:41.557Z,17.45
2023-04-12T05:36:21.539Z,17.98
2023-04-12T05:39:15.526Z,16.35
2023-04-12T05:42:09.545Z,19.77
2023-04-12T05:44:57.536Z,21.30
2023-04-12T05:47:30.694Z,27.88
2023-04-12T05:50:17.560Z,17.92
2023-04-12T05:52:50.674Z,20.42
2023-04-12T05:55:38.207Z,19.40
2023-04-12T05:58:11.829Z,20.25
2023-04-12T06:01:00.525Z,20.58
2023-04-12T06:03:40.683Z,18.88
2023-04-12T06:06:36.541Z,18.77
2023-04-12T06:09:23.583Z,17.58
2023-04-12T06:12:03.605Z,17.55
2023-04-12T06:14:57.569Z,17.10
2023-04-12T06:17:51.576Z,17.35
2023-04-12T06:20:38.536Z,18.60
2023-04-12T06:23:11.664Z,18.10
2023-04-12T06:25:59.580Z,18.42
2023-04-12T06:28:32.675Z,18.50
2023-04-12T06:31:19.606Z,19.13
2023-04-12T06:33:52.942Z,18.52
2023-04-12T06:36:39.561Z,18.88
2023-04-12T06:39:12.658Z,19.13
2023-04-12T06:41:59.581Z,29.77
2023-04-12T06:44:33.565Z,18.85
2023-04-12T06:47:20.685Z,18.85
2023-04-12T06:49:56.273Z,17.88
2023-04-12T06:52:43.563Z,18.65
2023-04-12T06:55:16.664Z,19.40
2023-04-12T06:58:10.584Z,18.90
2023-04-12T07:01:04.610Z,18.67
2023-04-12T07:03:58.685Z,22.85
2023-04-12T07:06:52.585Z,19.65
2023-04-12T07:09:46.622Z,19.80
2023-04-12T07:12:33.549Z,20.33
2023-04-12T07:15:06.755Z,18.73
2023-04-12T07:17:53.595Z,22.33
2023-04-12T07:20:27.116Z,19.77
2023-04-12T07:23:13.584Z,21.33
2023-04-12T07:25:46.667Z,25.40
2023-04-12T07:28:33.577Z,19.00
2023-04-12T07:31:06.957Z,18.85
2023-04-12T07:33:53.649Z,18.10
2023-04-12T07:36:27.170Z,18.63
2023-04-12T07:39:13.592Z,15.80
2023-04-12T07:41:49.718Z,17.20
2023-04-12T07:44:38.838Z,17.67
2023-04-12T07:47:12.751Z,15.98
2023-04-12T07:49:59.598Z,15.82
2023-04-12T07:52:32.786Z,17.33
2023-04-12T07:55:19.614Z,15.18
2023-04-12T07:57:59.595Z,16.67
2023-04-12T08:00:57.997Z,16.50
2023-04-12T08:03:45.766Z,17.58
2023-04-12T08:06:18.810Z,19.00
2023-04-12T08:09:05.598Z,15.60
2023-04-12T08:11:38.769Z,18.75
2023-04-12T08:14:25.611Z,17.02
2023-04-12T08:16:58.696Z,17.77
2023-04-12T08:19:45.605Z,18.15
2023-04-12T08:22:25.590Z,16.65
2023-04-12T08:25:13.599Z,16.30
2023-04-12T08:27:56.639Z,17.45
2023-04-12T08:30:50.592Z,18.60
2023-04-12T08:33:37.610Z,18.00
2023-04-12T08:36:11.196Z,17.23
2023-04-12T08:38:58.597Z,21.05
2023-04-12T08:41:39.127Z,18.17
2023-04-12T08:44:33.604Z,17.67
2023-04-12T08:47:20.620Z,17.33
2023-04-12T08:50:00.594Z,18.20
2023-04-12T08:52:54.596Z,16.20
2023-04-12T08:55:48.611Z,19.38
2023-04-12T08:58:43.627Z,18.73
2023-04-12T09:01:30.654Z,18.42
2023-04-12T09:04:04.109Z,16.67
2023-04-12T09:06:51.609Z,17.92
2023-04-12T09:09:24.702Z,20.27
2023-04-12T09:12:15.620Z,17.50
2023-04-12T09:14:48.797Z,17.52
2023-04-12T09:17:35.677Z,17.25
2023-04-12T09:20:32.622Z,16.85
2023-04-12T09:23:44.622Z,17.42
2023-04-12T09:26:35.632Z,16.35
2023-04-12T09:29:09.926Z,15.85
2023-04-12T09:32:12.602Z,14.75
2023-04-12T09:35:08.615Z,16.58
2023-04-12T09:38:04.632Z,15.95
2023-04-12T09:40:44.608Z,20.33
2023-04-12T09:43:53.639Z,16.17
2023-04-12T09:46:56.746Z,18.15
2023-04-12T09:49:42.845Z,17.35
2023-04-12T09:52:31.335Z,20.75
2023-04-12T09:55:12.613Z,17.58
2023-04-12T09:58:08.623Z,21.38
2023-04-12T10:01:02.659Z,16.23
2023-04-12T10:03:56.854Z,17.15
2023-04-12T10:06:43.682Z,17.23
2023-04-12T10:09:17.716Z,18.38
2023-04-12T10:12:06.630Z,18.90
2023-04-12T10:14:39.681Z,17.98
2023-04-12T10:17:26.724Z,20.23
2023-04-12T10:20:00.817Z,20.42
2023-04-12T10:22:58.640Z,19.83
2023-04-12T10:25:41.664Z,23.92
2023-04-12T10:28:35.645Z,18.15
2023-04-12T10:31:39.701Z,17.38
2023-04-12T10:34:13.767Z,19.50
2023-04-12T10:37:07.728Z,16.88
2023-04-12T10:39:42.978Z,14.95
2023-04-12T10:42:37.693Z,18.17
2023-04-12T10:45:43.809Z,16.27
2023-04-12T10:48:57.794Z,18.45
2023-04-12T10:51:33.276Z,16.63
2023-04-12T10:54:25.688Z,17.25
2023-04-12T10:57:05.698Z,16.98
2023-04-12T11:00:07.672Z,18.45
2023-04-12T11:03:21.725Z,17.08
2023-04-12T11:06:27.056Z,18.10
2023-04-12T11:09:25.664Z,17.88
2023-04-12T11:12:21.081Z,17.75
2023-04-12T11:15:10.681Z,16.95
2023-04-12T11:17:43.855Z,16.95
2023-04-12T11:20:33.669Z,17.92
2023-04-12T11:23:10.617Z,16.20
2023-04-12T11:26:00.692Z,18.65
2023-04-12T11:28:35.947Z,21.33
2023-04-12T11:31:27.742Z,18.85
2023-04-12T11:34:01.077Z,19.48
2023-04-12T11:36:48.766Z,16.92
2023-04-12T11:39:21.922Z,18.00
2023-04-12T11:42:09.693Z,16.38
2023-04-12T11:44:56.012Z,14.55
2023-04-12T11:47:38.743Z,16.23
2023-04-12T11:50:48.366Z,16.33
2023-04-12T11:53:45.696Z,16.20
2023-04-12T11:56:33.691Z,15.05
2023-04-12T11:59:06.988Z,15.52
2023-04-12T12:01:57.737Z,15.27
2023-04-12T12:04:31.935Z,15.23
2023-04-12T12:07:21.552Z,15.52
2023-04-12T12:10:03.797Z,15.80
2023-04-12T12:12:57.814Z,16.13
2023-04-12T12:15:54.789Z,16.17
2023-04-12T12:18:53.672Z,21.80
2023-04-12T12:21:40.697Z,14.98
2023-04-12T12:24:21.683Z,15.57
2023-04-12T12:27:09.736Z,14.57
2023-04-12T12:29:51.684Z,15.90
2023-04-12T12:32:43.750Z,14.90
2023-04-12T12:35:19.438Z,13.68
2023-04-12T12:38:06.683Z,12.60
2023-04-12T12:40:40.568Z,13.88
2023-04-12T12:43:27.693Z,16.17
2023-04-12T12:46:07.894Z,15.85
2023-04-12T12:48:48.735Z,16.00
2023-04-12T12:51:35.682Z,14.10
2023-04-12T12:54:40.544Z,14.40
2023-04-12T12:57:27.699Z,15.30
2023-04-12T13:00:01.192Z,14.38
2023-04-12T13:02:51.086Z,12.75
2023-04-12T13:05:31.738Z,13.98
2023-04-12T13:08:18.717Z,14.57
2023-04-12T13:10:58.699Z,14.57
2023-04-12T13:13:52.727Z,17.40
2023-04-12T13:16:39.754Z,19.00
2023-04-12T13:19:19.723Z,15.27
2023-04-12T13:22:13.711Z,26.98
2023-04-12T13:25:01.781Z,16.98
2023-04-12T13:27:34.858Z,16.73
2023-04-12T13:30:21.730Z,14.30
2023-04-12T13:32:55.322Z,14.93
2023-04-12T13:35:41.723Z,16.67
2023-04-12T13:38:21.732Z,15.52
2023-04-12T13:41:08.790Z,16.48
2023-04-12T13:43:48.771Z,16.88
2023-04-12T13:46:42.774Z,15.65
2023-04-12T13:49:36.775Z,13.13
2023-04-12T13:52:23.799Z,15.10
2023-04-12T13:54:57.888Z,16.52
2023-04-12T13:57:44.779Z,14.98
2023-04-12T14:00:19.615Z,16.67
2023-04-12T14:03:06.898Z,17.33
2023-04-12T14:05:46.777Z,16.58
2023-04-12T14:08:41.726Z,16.63
2023-04-12T14:11:38.777Z,18.42
2023-04-12T14:14:32.798Z,14.95
2023-04-12T14:17:19.928Z,16.77
2023-04-12T14:19:52.910Z,15.02
2023-04-12T14:22:39.745Z,13.30
2023-04-12T14:25:13.948Z,12.30
2023-04-12T14:28:00.782Z,13.73
2023-04-12T14:30:33.876Z,15.23
2023-04-12T14:33:13.791Z,15.82
2023-04-12T14:35:53.886Z,13.23
2023-04-12T14:38:35.800Z,13.32
2023-04-12T14:41:15.770Z,14.52
2023-04-12T14:43:57.055Z,20.80
2023-04-12T14:46:50.832Z,19.10
2023-04-12T14:49:37.794Z,16.55
2023-04-12T14:52:17.802Z,14.35
2023-04-12T14:55:04.779Z,23.10
2023-04-12T14:57:44.775Z,14.20
2023-04-12T15:00:38.777Z,14.02
2023-04-12T15:03:32.848Z,13.20
2023-04-12T15:06:27.799Z,14.18
2023-04-12T15:09:19.788Z,13.27
2023-04-12T15:12:07.795Z,13.18
2023-04-12T15:15:06.214Z,12.82
2023-04-12T15:17:52.829Z,14.00
2023-04-12T15:20:25.908Z,14.65
2023-04-12T15:23:15.799Z,13.68
2023-04-12T15:25:55.799Z,14.65
2023-04-12T15:28:49.845Z,13.43
2023-04-12T15:31:36.785Z,15.57
2023-04-12T15:34:16.777Z,15.00
2023-04-12T15:37:11.830Z,15.93
2023-04-12T15:39:59.846Z,14.07
2023-04-12T15:42:39.805Z,15.45
2023-04-12T15:45:33.833Z,14.70
2023-04-12T15:48:20.810Z,17.20
2023-04-12T15:51:02.806Z,14.80
2023-04-12T15:53:57.537Z,15.85
2023-04-12T15:56:44.880Z,15.30
2023-04-12T15:59:18.840Z,15.85
2023-04-12T16:02:08.638Z,16.23
2023-04-12T16:04:50.859Z,18.30
2023-04-12T16:07:47.859Z,18.83
2023-04-12T16:10:34.786Z,16.75
2023-04-12T16:13:10.220Z,19.55
2023-04-12T16:15:56.855Z,28.05
2023-04-12T16:18:37.804Z,25.23
2023-04-12T16:21:32.804Z,27.15
2023-04-12T16:24:20.802Z,34.50
2023-04-12T16:27:00.837Z,22.05
2023-04-12T16:29:54.799Z,22.55
2023-04-12T16:32:42.805Z,19.27
2023-04-12T16:35:16.487Z,18.55
2023-04-12T16:38:02.804Z,16.92
2023-04-12T16:40:35.951Z,20.67
2023-04-12T16:43:23.838Z,17.88
2023-04-12T16:45:56.926Z,18.25
2023-04-12T16:48:47.877Z,18.65
2023-04-12T16:51:21.126Z,16.20
2023-04-12T16:54:07.861Z,16.65
2023-04-12T16:56:47.856Z,17.00
2023-04-12T16:59:41.850Z,18.35
2023-04-12T17:02:28.944Z,17.67
2023-04-12T17:05:10.878Z,26.52
2023-04-12T17:08:05.895Z,19.17
2023-04-12T17:11:00.813Z,18.98
2023-04-12T17:13:50.785Z,19.92
2023-04-12T17:16:24.853Z,18.17
2023-04-12T17:19:11.864Z,22.42
2023-04-12T17:21:55.848Z,30.42
2023-04-12T17:24:49.848Z,33.63
2023-04-12T17:27:43.849Z,22.73
2023-04-12T17:30:19.036Z,29.35
2023-04-12T17:33:07.937Z,28.60
2023-04-12T17:35:42.197Z,22.52
2023-04-12T17:38:28.918Z,26.98
2023-04-12T17:41:02.476Z,24.70
2023-04-12T17:43:48.886Z,29.80
2023-04-12T17:46:23.160Z,28.58
2023-04-12T17:49:11.877Z,37.08
2023-04-12T17:51:44.964Z,35.22
2023-04-12T17:54:31.878Z,33.17
2023-04-12T17:57:04.973Z,38.13
2023-04-12T17:59:58.877Z,35.72
2023-04-12T18:02:59.003Z,40.15
2023-04-12T18:05:45.919Z,32.83
2023-04-12T18:08:19.158Z,28.13
2023-04-12T18:11:06.922Z,30.48
2023-04-12T18:13:40.006Z,32.85
2023-04-12T18:16:26.960Z,34.50
2023-04-12T18:19:01.302Z,29.90
2023-04-12T18:21:47.908Z,30.23
2023-04-12T18:24:21.966Z,31.13
2023-04-12T18:27:10.885Z,31.88
2023-04-12T18:29:43.991Z,30.60
2023-04-12T18:32:30.916Z,45.42
2023-04-12T18:35:05.055Z,39.28
2023-04-12T18:37:51.936Z,38.60
2023-04-12T18:40:25.018Z,37.10
2023-04-12T18:43:12.885Z,35.70
2023-04-12T18:45:47.072Z,34.08
2023-04-12T18:48:33.906Z,37.53
2023-04-12T18:51:07.421Z,37.50
2023-04-12T18:53:54.903Z,37.00
2023-04-12T18:56:35.018Z,34.50
2023-04-12T18:59:28.988Z,34.97
2023-04-12T19:02:16.917Z,36.45
2023-04-12T19:04:51.321Z,37.40
2023-04-12T19:07:38.891Z,37.05
2023-04-12T19:10:13.323Z,39.45
2023-04-12T19:13:01.055Z,39.33
2023-04-12T19:15:35.244Z,39.42
2023-04-12T19:18:24.642Z,36.95
2023-04-12T19:21:07.391Z,34.03
2023-04-12T19:24:01.645Z,34.35
2023-04-12T19:26:55.104Z,33.55
2023-04-12T19:29:29.300Z,29.90
2023-04-12T19:32:18.908Z,29.67
2023-04-12T19:34:54.347Z,33.17
2023-04-12T19:37:42.922Z,36.78
2023-04-12T19:40:19.215Z,35.10
2023-04-12T19:43:06.930Z,29.98
2023-04-12T19:45:41.423Z,28.70
2023-04-12T19:48:28.921Z,31.17
2023-04-12T19:51:04.460Z,30.77
2023-04-12T19:53:54.930Z,30.65
2023-04-12T19:56:37.933Z,32.35
2023-04-12T19:59:33.934Z,35.90
2023-04-12T20:02:20.994Z,37.10
2023-04-12T20:05:03.996Z,39.63
2023-04-12T20:07:51.964Z,41.65
2023-04-12T20:10:26.249Z,33.90
2023-04-12T20:13:44.943Z,32.85
2023-04-12T20:16:25.960Z,30.50
2023-04-12T20:19:19.956Z,32.92
2023-04-12T20:22:09.966Z,37.92
2023-04-12T20:24:43.080Z,39.38
2023-04-12T20:27:32.306Z,36.67
2023-04-12T20:30:06.069Z,36.42
2023-04-12T20:32:54.064Z,36.80
2023-04-12T20:35:28.195Z,31.90
2023-04-12T20:38:14.944Z,29.00
2023-04-12T20:40:48.074Z,31.23
2023-04-12T20:43:34.945Z,26.58
2023-04-12T20:46:14.599Z,35.00
2023-04-12T20:49:02.936Z,28.92
2023-04-12T20:51:36.021Z,34.97
2023-04-12T20:54:22.953Z,28.00
2023-04-12T20:57:05.042Z,27.60
2023-04-12T20:59:59.914Z,26.48
2023-04-12T21:02:54.102Z,34.65
2023-04-12T21:05:40.945Z,28.90
2023-04-12T21:08:20.935Z,29.08
2023-04-12T21:11:14.985Z,26.35
2023-04-12T21:14:01.940Z,28.52
2023-04-12T21:16:44.962Z,28.58
2023-04-12T21:19:38.975Z,36.47
2023-04-12T21:22:25.926Z,33.17
2023-04-12T21:25:05.917Z,33.60
2023-04-12T21:27:53.943Z,34.45
2023-04-12T21:30:27.108Z,33.72
2023-04-12T21:33:14.991Z,27.20
2023-04-12T21:35:55.078Z,27.65
2023-04-12T21:38:48.941Z,29.73
2023-04-12T21:41:35.942Z,30.67
2023-04-12T21:44:18.939Z,25.25
2023-04-12T21:47:05.984Z,22.90
2023-04-12T21:49:45.948Z,28.17
2023-04-12T21:52:39.938Z,23.30
2023-04-12T21:55:27.942Z,23.63
2023-04-12T21:58:01.027Z,28.42
2023-04-12T22:00:48.021Z,27.23
2023-04-12T22:03:21.522Z,29.98
2023-04-12T22:06:07.946Z,27.30
2023-04-12T22:08:44.114Z,27.23
2023-04-12T22:11:30.999Z,26.90
2023-04-12T22:14:05.212Z,26.90
2023-04-12T22:16:52.015Z,25.20
2023-04-12T22:19:25.261Z,24.08
2023-04-12T22:22:11.983Z,25.08
2023-04-12T22:24:51.960Z,26.13
2023-04-12T22:27:45.943Z,24.48
2023-04-12T22:30:33.985Z,23.88
2023-04-12T22:33:15.011Z,25.38
2023-04-12T22:36:08.983Z,27.55
2023-04-12T22:38:56.013Z,24.23
2023-04-12T22:41:35.252Z,26.10
2023-04-12T22:44:23.920Z,24.48
2023-04-12T22:47:00.150Z,28.92
2023-04-12T22:49:56.995Z,28.27
2023-04-12T22:52:30.673Z,26.80
2023-04-12T22:55:25.001Z,29.33
2023-04-12T22:57:58.055Z,30.55
2023-04-12T23:00:51.953Z,25.85
2023-04-12T23:03:48.043Z,25.50
2023-04-12T23:06:37.024Z,23.80
2023-04-12T23:09:10.077Z,24.08
2023-04-12T23:11:57.995Z,21.65
2023-04-12T23:14:37.976Z,25.90
2023-04-12T23:17:33.139Z,23.08
2023-04-12T23:20:20.988Z,24.63
2023-04-12T23:22:57.761Z,26.60
2023-04-12T23:25:47.953Z,21.35
2023-04-12T23:28:24.369Z,24.55
2023-04-12T23:31:14.014Z,22.42
2023-04-12T23:33:47.275Z,23.08
2023-04-12T23:36:34.037Z,23.38
2023-04-12T23:39:08.636Z,21.35
2023-04-12T23:41:55.006Z,22.55
2023-04-12T23:44:28.213Z,23.83
2023-04-12T23:47:15.020Z,22.95
2023-04-12T23:49:48.091Z,24.30
2023-04-12T23:52:35.013Z,24.23
2023-04-12T23:55:08.542Z,22.50
2023-04-12T23:57:54.980Z,24.13
